createdAt,value
2023-08-29T00:00:40.868Z,65.76
2023-08-29T00:03:08.651Z,65.97
2023-08-29T00:05:36.827Z,65.61
2023-08-29T00:08:04.720Z,65.58
2023-08-29T00:10:32.746Z,68.13
2023-08-29T00:13:00.153Z,65.56
2023-08-29T00:15:27.581Z,65.00
2023-08-29T00:17:55.312Z,64.92
2023-08-29T00:20:22.716Z,64.87
2023-08-29T00:22:50.119Z,65.79
2023-08-29T00:25:17.743Z,64.93
2023-08-29T00:27:45.152Z,64.45
2023-08-29T00:30:13.184Z,64.82
2023-08-29T00:32:42.208Z,64.46
2023-08-29T00:35:09.925Z,64.40
2023-08-29T00:37:37.684Z,65.20
2023-08-29T00:40:05.897Z,65.16
2023-08-29T00:42:33.412Z,65.35
2023-08-29T00:45:00.848Z,65.41
2023-08-29T00:47:28.982Z,65.18
2023-08-29T00:49:56.501Z,65.24
2023-08-29T00:52:23.974Z,65.97
2023-08-29T00:54:51.723Z,65.74
2023-08-29T00:57:19.218Z,65.09
2023-08-29T00:59:46.667Z,65.18
2023-08-29T01:02:14.327Z,64.86
2023-08-29T01:04:41.766Z,64.26
2023-08-29T01:07:09.544Z,63.92
2023-08-29T01:09:39.134Z,64.89
2023-08-29T01:12:15.498Z,64.83
2023-08-29T01:14:56.402Z,65.95
2023-08-29T01:17:36.364Z,68.10
2023-08-29T01:20:06.447Z,67.14
2023-08-29T01:23:14.705Z,67.53
2023-08-29T01:25:54.129Z,67.59
2023-08-29T01:28:21.898Z,67.79
2023-08-29T01:30:50.406Z,67.40
2023-08-29T01:33:20.555Z,66.67
2023-08-29T01:35:48.489Z,67.35
2023-08-29T01:38:19.532Z,66.05
2023-08-29T01:40:47.078Z,67.82
2023-08-29T01:43:14.512Z,66.60
2023-08-29T01:45:42.336Z,66.23
2023-08-29T01:48:12.473Z,66.00
2023-08-29T01:50:40.827Z,66.40
2023-08-29T01:53:09.522Z,66.19
2023-08-29T01:55:38.411Z,65.80
2023-08-29T01:58:07.132Z,64.88
2023-08-29T02:00:36.941Z,64.53
2023-08-29T02:03:04.797Z,65.19
2023-08-29T02:05:32.269Z,66.09
2023-08-29T02:08:00.141Z,67.09
2023-08-29T02:10:31.404Z,67.39
2023-08-29T02:12:58.846Z,66.58
2023-08-29T02:15:26.280Z,66.45
2023-08-29T02:17:54.625Z,66.29
2023-08-29T02:20:22.680Z,66.35
2023-08-29T02:22:50.081Z,68.29
2023-08-29T02:25:17.621Z,67.11
2023-08-29T02:27:45.383Z,67.04
2023-08-29T02:30:13.190Z,67.08
2023-08-29T02:32:41.323Z,67.40
2023-08-29T02:35:11.557Z,66.66
2023-08-29T02:37:39.314Z,66.89
2023-08-29T02:40:10.465Z,66.64
2023-08-29T02:42:38.295Z,65.61
2023-08-29T02:45:06.113Z,66.03
2023-08-29T02:47:33.640Z,65.67
2023-08-29T02:50:02.187Z,64.47
2023-08-29T02:52:29.878Z,64.08
2023-08-29T02:54:57.418Z,64.33
2023-08-29T02:57:25.776Z,64.34
2023-08-29T02:59:53.335Z,64.01
2023-08-29T03:02:20.827Z,63.62
2023-08-29T03:04:48.580Z,63.15
2023-08-29T03:07:16.025Z,63.91
2023-08-29T03:09:43.450Z,64.53
2023-08-29T03:12:11.197Z,64.52
2023-08-29T03:14:38.626Z,64.48
2023-08-29T03:17:06.720Z,64.47
2023-08-29T03:19:34.490Z,64.99
2023-08-29T03:22:01.931Z,65.39
2023-08-29T03:24:29.909Z,66.10
2023-08-29T03:26:57.637Z,65.64
2023-08-29T03:29:25.074Z,65.36
2023-08-29T03:31:52.660Z,65.41
2023-08-29T03:34:20.391Z,64.78
2023-08-29T03:36:47.851Z,65.60
2023-08-29T03:39:15.302Z,65.78
2023-08-29T03:41:43.045Z,63.90
2023-08-29T03:44:10.437Z,63.89
2023-08-29T03:46:37.860Z,64.84
2023-08-29T03:49:05.532Z,64.79
2023-08-29T03:51:34.126Z,65.10
2023-08-29T03:54:01.588Z,64.79
2023-08-29T03:56:29.520Z,64.74
2023-08-29T03:58:57.033Z,64.68
2023-08-29T04:01:24.540Z,64.32
2023-08-29T04:03:54.264Z,64.01
2023-08-29T04:06:22.228Z,64.22
2023-08-29T04:08:49.759Z,64.02
2023-08-29T04:11:19.116Z,64.48
2023-08-29T04:13:47.039Z,65.01
2023-08-29T04:16:14.495Z,64.71
2023-08-29T04:18:42.866Z,65.00
2023-08-29T04:21:10.841Z,65.19
2023-08-29T04:23:38.408Z,65.99
2023-08-29T04:26:06.217Z,66.60
2023-08-29T04:28:33.784Z,66.06
2023-08-29T04:31:11.175Z,65.64
2023-08-29T04:33:40.203Z,65.73
2023-08-29T04:36:09.123Z,65.65
2023-08-29T04:38:36.669Z,65.18
2023-08-29T04:41:05.145Z,64.95
2023-08-29T04:43:32.600Z,64.95
2023-08-29T04:46:00.709Z,65.34
2023-08-29T04:48:28.726Z,64.91
2023-08-29T04:50:56.152Z,65.77
2023-08-29T04:53:24.360Z,65.32
2023-08-29T04:56:02.330Z,64.81
2023-08-29T04:58:34.097Z,64.27
2023-08-29T05:01:02.145Z,64.99
2023-08-29T05:03:29.693Z,65.93
2023-08-29T05:05:58.832Z,66.00
2023-08-29T05:08:26.662Z,66.42
2023-08-29T05:10:54.075Z,65.20
2023-08-29T05:13:21.501Z,66.08
2023-08-29T05:15:49.248Z,66.53
2023-08-29T05:18:16.770Z,66.99
2023-08-29T05:20:44.632Z,67.47
2023-08-29T05:23:12.308Z,67.77
2023-08-29T05:25:40.869Z,67.90
2023-08-29T05:28:08.668Z,67.79
2023-08-29T05:30:36.717Z,68.35
2023-08-29T05:33:04.197Z,67.59
2023-08-29T05:35:31.716Z,67.24
2023-08-29T05:37:59.572Z,67.47
2023-08-29T05:40:26.983Z,67.16
2023-08-29T05:42:54.401Z,68.38
2023-08-29T05:45:22.118Z,67.38
2023-08-29T05:47:49.580Z,67.89
2023-08-29T05:50:17.095Z,67.41
2023-08-29T05:52:44.853Z,67.18
2023-08-29T05:55:12.288Z,67.84
2023-08-29T05:57:39.713Z,68.15
2023-08-29T06:00:13.680Z,68.98
2023-08-29T06:02:41.673Z,68.68
2023-08-29T06:05:10.197Z,69.43
2023-08-29T06:07:40.079Z,70.71
2023-08-29T06:10:08.828Z,68.81
2023-08-29T06:12:36.609Z,69.53
2023-08-29T06:15:04.153Z,68.81
2023-08-29T06:17:32.133Z,67.74
2023-08-29T06:19:59.874Z,69.77
2023-08-29T06:22:27.286Z,70.62
2023-08-29T06:24:56.037Z,70.87
2023-08-29T06:27:23.818Z,69.90
2023-08-29T06:29:51.227Z,69.22
2023-08-29T06:32:18.762Z,68.72
2023-08-29T06:34:46.496Z,68.77
2023-08-29T06:37:14.972Z,69.94
2023-08-29T06:39:43.928Z,69.44
2023-08-29T06:42:11.602Z,70.33
2023-08-29T06:44:39.064Z,72.27
2023-08-29T06:47:06.505Z,71.61
2023-08-29T06:49:34.225Z,70.53
2023-08-29T06:52:01.672Z,69.43
2023-08-29T06:54:31.838Z,68.87
2023-08-29T06:56:59.782Z,67.39
2023-08-29T06:59:27.258Z,67.82
2023-08-29T07:01:54.709Z,67.80
2023-08-29T07:04:22.445Z,69.31
2023-08-29T07:06:49.914Z,69.01
2023-08-29T07:09:17.497Z,69.76
2023-08-29T07:11:45.188Z,68.49
2023-08-29T07:14:12.597Z,71.24
2023-08-29T07:16:40.043Z,71.44
2023-08-29T07:19:07.732Z,70.80
2023-08-29T07:21:35.192Z,70.80
2023-08-29T07:24:02.613Z,71.87
2023-08-29T07:26:30.314Z,70.50
2023-08-29T07:28:57.788Z,70.13
2023-08-29T07:31:25.185Z,70.36
2023-08-29T07:33:52.965Z,71.09
2023-08-29T07:36:20.384Z,70.15
2023-08-29T07:38:47.905Z,70.25
2023-08-29T07:41:15.673Z,70.26
2023-08-29T07:43:43.098Z,70.21
2023-08-29T07:46:10.550Z,69.76
2023-08-29T07:48:38.258Z,70.08
2023-08-29T07:51:05.656Z,70.35
2023-08-29T07:53:33.073Z,71.23
2023-08-29T07:56:00.814Z,70.55
2023-08-29T07:58:28.264Z,69.99
2023-08-29T08:00:55.856Z,69.08
2023-08-29T08:03:23.602Z,69.63
2023-08-29T08:05:51.531Z,70.35
2023-08-29T08:08:20.232Z,70.60
2023-08-29T08:10:47.930Z,70.75
2023-08-29T08:13:15.362Z,70.44
2023-08-29T08:15:42.927Z,69.38
2023-08-29T08:18:10.860Z,69.67
2023-08-29T08:20:38.488Z,69.38
2023-08-29T08:23:07.311Z,68.32
2023-08-29T08:25:35.232Z,68.64
2023-08-29T08:28:02.644Z,68.20
2023-08-29T08:30:30.156Z,68.73
2023-08-29T08:32:57.845Z,69.22
2023-08-29T08:35:26.583Z,69.24
2023-08-29T08:37:54.861Z,70.24
2023-08-29T08:40:22.591Z,71.75
2023-08-29T08:42:50.068Z,70.30
2023-08-29T08:45:17.914Z,71.08
2023-08-29T08:47:46.682Z,71.38
2023-08-29T08:50:14.160Z,72.59
2023-08-29T08:52:41.955Z,72.24
2023-08-29T08:55:10.100Z,72.68
2023-08-29T08:57:37.804Z,71.99
2023-08-29T09:00:07.777Z,72.21
2023-08-29T09:02:38.864Z,73.20
2023-08-29T09:05:25.323Z,72.91
2023-08-29T09:07:53.079Z,73.16
2023-08-29T09:10:21.153Z,73.21
2023-08-29T09:12:53.079Z,72.71
2023-08-29T09:15:21.146Z,73.92
2023-08-29T09:17:49.893Z,73.83
2023-08-29T09:20:18.182Z,74.87
2023-08-29T09:22:46.816Z,73.70
2023-08-29T09:25:14.592Z,74.19
2023-08-29T09:27:44.363Z,73.17
2023-08-29T09:30:13.465Z,72.51
2023-08-29T09:32:49.135Z,71.53
2023-08-29T09:35:20.134Z,72.24
2023-08-29T09:37:53.477Z,72.23
2023-08-29T09:42:59.556Z,74.92
2023-08-29T09:45:31.454Z,74.97
2023-08-29T09:48:03.703Z,74.46
2023-08-29T09:50:32.159Z,74.65
2023-08-29T09:53:00.813Z,74.30
2023-08-29T09:55:33.877Z,73.50
2023-08-29T09:58:02.746Z,76.72
2023-08-29T10:00:30.999Z,77.15
2023-08-29T10:02:59.728Z,76.10
2023-08-29T10:05:29.483Z,74.94
2023-08-29T10:08:19.779Z,74.79
2023-08-29T10:10:48.459Z,76.05
2023-08-29T10:13:16.884Z,76.27
2023-08-29T10:15:45.464Z,75.79
2023-08-29T10:18:14.098Z,74.59
2023-08-29T10:20:44.933Z,74.25
2023-08-29T10:23:14.996Z,75.43
2023-08-29T10:25:43.179Z,76.23
2023-08-29T10:28:13.388Z,76.67
2023-08-29T10:30:44.700Z,78.59
2023-08-29T10:33:12.887Z,82.17
2023-08-29T10:35:40.923Z,82.26
2023-08-29T10:38:15.194Z,82.14
2023-08-29T10:40:44.519Z,80.37
2023-08-29T10:43:22.716Z,79.87
2023-08-29T10:45:53.761Z,79.29
2023-08-29T10:48:45.411Z,78.43
2023-08-29T10:51:27.832Z,79.57
2023-08-29T10:54:12.317Z,77.43
2023-08-29T10:56:44.552Z,75.38
2023-08-29T10:59:32.467Z,74.24
2023-08-29T11:02:33.323Z,74.61
2023-08-29T11:05:03.593Z,74.86
2023-08-29T11:07:32.592Z,73.03
2023-08-29T11:10:21.245Z,73.00
2023-08-29T11:13:09.086Z,74.15
2023-08-29T11:15:48.547Z,70.94
2023-08-29T11:18:36.165Z,68.63
2023-08-29T11:23:43.044Z,71.00
2023-08-29T11:26:10.983Z,69.56
2023-08-29T11:28:46.580Z,67.85
2023-08-29T11:31:14.198Z,67.05
2023-08-29T11:33:41.973Z,69.10
2023-08-29T11:36:11.021Z,68.25
2023-08-29T11:38:38.839Z,65.07
2023-08-29T11:41:24.997Z,65.22
2023-08-29T11:44:30.800Z,64.41
2023-08-29T11:46:45.093Z,64.28
2023-08-29T11:49:14.578Z,64.48
2023-08-29T11:51:42.297Z,63.85
2023-08-29T11:54:42.602Z,65.49
2023-08-29T11:57:14.248Z,62.87
2023-08-29T11:59:45.869Z,60.07
2023-08-29T12:02:18.684Z,60.97
2023-08-29T12:04:48.580Z,61.56
2023-08-29T12:07:17.852Z,61.87
2023-08-29T12:09:47.413Z,58.64
2023-08-29T12:12:37.505Z,58.60
2023-08-29T12:15:15.358Z,60.52
2023-08-29T12:17:48.440Z,60.41
2023-08-29T12:20:16.599Z,60.37
2023-08-29T12:22:51.856Z,60.05
2023-08-29T12:25:20.599Z,60.59
2023-08-29T12:27:49.056Z,60.30
2023-08-29T12:30:16.945Z,63.01
2023-08-29T12:32:45.918Z,59.15
2023-08-29T12:35:16.540Z,57.79
2023-08-29T12:37:44.065Z,59.16
2023-08-29T12:40:13.486Z,57.44
2023-08-29T12:42:42.167Z,59.49
2023-08-29T12:45:10.418Z,57.20
2023-08-29T12:47:40.751Z,59.16
2023-08-29T12:50:09.447Z,57.06
2023-08-29T12:52:37.000Z,59.22
2023-08-29T12:55:05.643Z,57.01
2023-08-29T12:57:33.360Z,58.17
2023-08-29T13:00:00.796Z,56.55
2023-08-29T13:02:28.356Z,58.43
2023-08-29T13:04:56.218Z,58.41
2023-08-29T13:07:23.639Z,57.17
2023-08-29T13:09:52.898Z,58.92
2023-08-29T13:12:21.895Z,58.05
2023-08-29T13:14:49.365Z,56.26
2023-08-29T13:17:17.685Z,58.20
2023-08-29T13:19:45.592Z,59.46
2023-08-29T13:22:13.101Z,59.06
2023-08-29T13:24:40.600Z,58.11
2023-08-29T13:27:09.356Z,59.36
2023-08-29T13:29:36.896Z,59.89
2023-08-29T13:32:04.526Z,58.72
2023-08-29T13:34:50.781Z,59.29
2023-08-29T13:37:18.283Z,58.34
2023-08-29T13:39:46.201Z,59.59
2023-08-29T13:42:13.815Z,58.40
2023-08-29T13:44:42.217Z,58.01
2023-08-29T13:47:11.247Z,58.16
2023-08-29T13:49:41.130Z,59.05
2023-08-29T13:52:09.480Z,55.32
2023-08-29T13:54:37.326Z,56.80
2023-08-29T13:57:06.031Z,57.41
2023-08-29T13:59:33.457Z,57.53
2023-08-29T14:02:02.686Z,57.78
2023-08-29T14:04:33.560Z,56.96
2023-08-29T14:07:01.567Z,57.72
2023-08-29T14:09:29.721Z,58.54
2023-08-29T14:11:57.549Z,59.42
2023-08-29T14:14:25.422Z,57.76
2023-08-29T14:16:54.249Z,58.64
2023-08-29T14:19:23.254Z,56.79
2023-08-29T14:21:51.852Z,58.81
2023-08-29T14:24:21.416Z,59.55
2023-08-29T14:26:50.633Z,60.08
2023-08-29T14:29:18.278Z,60.42
2023-08-29T14:31:46.140Z,60.09
2023-08-29T14:34:14.546Z,59.72
2023-08-29T14:36:42.246Z,59.12
2023-08-29T14:39:10.230Z,59.31
2023-08-29T14:41:38.341Z,61.02
2023-08-29T14:44:06.255Z,60.71
2023-08-29T14:46:33.726Z,60.62
2023-08-29T14:49:04.010Z,59.98
2023-08-29T14:51:31.922Z,59.04
2023-08-29T14:54:04.462Z,59.19
2023-08-29T14:56:33.242Z,58.94
2023-08-29T14:59:00.910Z,58.99
2023-08-29T15:01:28.375Z,59.45
2023-08-29T15:03:56.967Z,58.67
2023-08-29T15:06:27.007Z,60.24
2023-08-29T15:08:55.298Z,58.61
2023-08-29T15:11:23.995Z,59.07
2023-08-29T15:13:51.947Z,58.94
2023-08-29T15:16:20.004Z,60.38
2023-08-29T15:18:47.911Z,59.93
2023-08-29T15:21:17.538Z,60.19
2023-08-29T15:23:48.249Z,59.99
2023-08-29T15:26:17.273Z,59.99
2023-08-29T15:28:44.788Z,59.47
2023-08-29T15:31:12.619Z,59.79
2023-08-29T15:33:40.845Z,60.23
2023-08-29T15:36:09.037Z,60.56
2023-08-29T15:38:37.562Z,59.57
2023-08-29T15:41:06.993Z,59.74
2023-08-29T15:43:36.112Z,59.49
2023-08-29T15:46:06.920Z,59.32
2023-08-29T15:48:36.290Z,59.35
2023-08-29T15:51:06.226Z,59.91
2023-08-29T15:53:37.515Z,59.45
2023-08-29T15:56:08.452Z,60.73
2023-08-29T15:58:36.827Z,60.79
2023-08-29T16:01:08.312Z,61.57
2023-08-29T16:03:36.576Z,61.04
2023-08-29T16:06:08.806Z,62.51
2023-08-29T16:08:37.665Z,62.57
2023-08-29T16:11:05.626Z,62.54
2023-08-29T16:13:33.640Z,62.61
2023-08-29T16:16:02.454Z,62.48
2023-08-29T16:18:30.255Z,62.50
2023-08-29T16:20:58.914Z,62.05
2023-08-29T16:23:27.025Z,62.67
2023-08-29T16:25:54.980Z,62.48
2023-08-29T16:28:24.500Z,61.84
2023-08-29T16:30:52.976Z,61.82
2023-08-29T16:33:22.834Z,61.20
2023-08-29T16:35:51.264Z,62.37
2023-08-29T16:38:20.428Z,60.19
2023-08-29T16:40:51.449Z,60.31
2023-08-29T16:43:22.170Z,61.78
2023-08-29T16:45:49.804Z,62.35
2023-08-29T16:48:18.656Z,62.24
2023-08-29T16:50:49.431Z,61.39
2023-08-29T16:53:17.178Z,60.03
2023-08-29T16:55:46.191Z,60.15
2023-08-29T16:58:14.296Z,60.48
2023-08-29T17:00:43.723Z,59.90
2023-08-29T17:03:12.623Z,60.53
2023-08-29T17:05:43.465Z,61.32
2023-08-29T17:08:13.572Z,61.30
2023-08-29T17:10:42.896Z,61.04
2023-08-29T17:13:11.334Z,61.65
2023-08-29T17:15:39.586Z,62.56
2023-08-29T17:18:07.751Z,62.32
2023-08-29T17:20:36.106Z,62.16
2023-08-29T17:23:04.534Z,62.17
2023-08-29T17:25:33.334Z,62.23
2023-08-29T17:28:01.944Z,61.97
2023-08-29T17:30:30.086Z,61.84
2023-08-29T17:32:58.546Z,61.32
2023-08-29T17:35:26.790Z,62.16
2023-08-29T17:37:55.083Z,63.17
2023-08-29T17:40:23.295Z,62.63
2023-08-29T17:42:51.388Z,62.16
2023-08-29T17:45:20.149Z,62.47
2023-08-29T17:47:50.033Z,62.67
2023-08-29T17:50:19.061Z,63.40
2023-08-29T17:52:48.986Z,64.06
2023-08-29T17:55:18.330Z,64.21
2023-08-29T17:57:50.101Z,64.43
2023-08-29T18:00:20.760Z,64.13
2023-08-29T18:02:48.980Z,63.42
2023-08-29T18:05:17.210Z,63.95
2023-08-29T18:07:45.291Z,64.26
2023-08-29T18:10:18.310Z,64.11
2023-08-29T18:12:46.641Z,63.79
2023-08-29T18:15:16.218Z,64.11
2023-08-29T18:17:44.201Z,63.68
2023-08-29T18:20:12.744Z,64.30
2023-08-29T18:22:41.645Z,64.36
2023-08-29T18:25:10.066Z,63.57
2023-08-29T18:27:38.106Z,63.84
2023-08-29T18:30:08.435Z,63.80
2023-08-29T18:32:37.041Z,64.07
2023-08-29T18:35:05.852Z,63.79
2023-08-29T18:37:35.667Z,64.77
2023-08-29T18:40:04.376Z,64.75
2023-08-29T18:42:34.574Z,64.23
2023-08-29T18:45:05.392Z,64.78
2023-08-29T18:47:34.166Z,65.00
2023-08-29T18:50:03.100Z,65.36
2023-08-29T18:52:31.852Z,65.20
2023-08-29T18:55:01.148Z,65.75
2023-08-29T18:57:34.238Z,65.33
2023-08-29T19:00:02.524Z,64.87
2023-08-29T19:02:31.580Z,64.12
2023-08-29T19:05:01.727Z,67.03
2023-08-29T19:07:31.752Z,68.64
2023-08-29T19:10:02.995Z,68.50
2023-08-29T19:12:33.644Z,65.25
2023-08-29T19:15:06.385Z,64.55
2023-08-29T19:17:35.178Z,65.92
2023-08-29T19:20:05.089Z,61.81
2023-08-29T19:22:35.664Z,63.32
2023-08-29T19:25:04.805Z,61.40
2023-08-29T19:27:33.446Z,61.28
2023-08-29T19:30:07.896Z,60.74
2023-08-29T19:32:37.263Z,61.90
2023-08-29T19:35:05.872Z,61.69
2023-08-29T19:37:34.373Z,61.61
2023-08-29T19:40:03.544Z,61.79
2023-08-29T19:42:31.841Z,60.70
2023-08-29T19:45:00.434Z,60.59
2023-08-29T19:47:29.657Z,61.49
2023-08-29T19:49:58.442Z,62.61
2023-08-29T19:52:28.426Z,62.83
2023-08-29T19:54:58.366Z,63.49
2023-08-29T19:57:27.326Z,64.08
2023-08-29T19:59:55.871Z,64.16
2023-08-29T20:02:24.946Z,64.78
2023-08-29T20:04:53.959Z,66.00
2023-08-29T20:07:22.429Z,66.30
2023-08-29T20:09:51.228Z,67.07
2023-08-29T20:12:20.612Z,66.76
2023-08-29T20:14:49.218Z,68.74
2023-08-29T20:17:17.966Z,68.21
2023-08-29T20:19:46.630Z,69.98
2023-08-29T20:22:14.850Z,68.79
2023-08-29T20:24:43.507Z,73.55
2023-08-29T20:27:12.682Z,72.71
2023-08-29T20:29:40.786Z,75.40
2023-08-29T20:32:10.708Z,74.18
2023-08-29T20:34:39.782Z,72.94
2023-08-29T20:37:08.512Z,71.71
2023-08-29T20:39:37.210Z,73.75
2023-08-29T20:42:07.509Z,73.32
2023-08-29T20:44:35.213Z,73.75
2023-08-29T20:47:02.800Z,74.69
2023-08-29T20:49:31.128Z,73.28
2023-08-29T20:51:58.778Z,71.97
2023-08-29T20:54:27.366Z,73.44
2023-08-29T20:56:55.981Z,74.49
2023-08-29T20:59:24.049Z,73.52
2023-08-29T21:01:51.819Z,75.07
2023-08-29T21:04:19.552Z,73.80
2023-08-29T21:06:47.013Z,73.85
2023-08-29T21:09:17.148Z,74.99
2023-08-29T21:11:45.141Z,75.10
2023-08-29T21:14:12.589Z,72.34
2023-08-29T21:16:40.100Z,73.78
2023-08-29T21:19:07.854Z,73.99
2023-08-29T21:21:35.394Z,73.69
2023-08-29T21:24:02.840Z,73.09
2023-08-29T21:26:30.997Z,72.48
2023-08-29T21:28:58.500Z,73.03
2023-08-29T21:31:26.949Z,72.18
2023-08-29T21:33:54.704Z,73.25
2023-08-29T21:36:22.147Z,74.81
2023-08-29T21:38:49.602Z,76.13
2023-08-29T21:41:17.325Z,75.85
2023-08-29T21:43:44.796Z,75.34
2023-08-29T21:46:12.338Z,74.67
2023-08-29T21:48:40.059Z,73.40
2023-08-29T21:51:12.046Z,73.86
2023-08-29T21:53:39.882Z,73.65
2023-08-29T21:56:10.612Z,73.95
2023-08-29T21:58:38.017Z,73.79
2023-08-29T22:01:05.757Z,73.19
2023-08-29T22:03:33.689Z,73.51
2023-08-29T22:06:01.180Z,73.82
2023-08-29T22:08:28.606Z,75.34
2023-08-29T22:10:56.338Z,74.38
2023-08-29T22:13:23.770Z,76.49
2023-08-29T22:15:52.214Z,77.58
2023-08-29T22:18:19.994Z,76.48
2023-08-29T22:20:49.009Z,79.02
2023-08-29T22:23:16.457Z,77.86
2023-08-29T22:25:44.202Z,79.58
2023-08-29T22:28:11.665Z,78.73
2023-08-29T22:30:42.001Z,77.29
2023-08-29T22:33:09.838Z,79.52
2023-08-29T22:35:42.752Z,78.41
2023-08-29T22:38:12.439Z,78.64
2023-08-29T22:40:40.268Z,77.03
2023-08-29T22:43:07.987Z,78.19
2023-08-29T22:45:35.711Z,78.08
2023-08-29T22:48:03.527Z,80.22
2023-08-29T22:50:30.955Z,80.28
2023-08-29T22:52:58.641Z,79.06
2023-08-29T22:55:27.429Z,77.88
2023-08-29T22:57:54.840Z,77.28
2023-08-29T23:00:22.549Z,75.63
2023-08-29T23:02:50.066Z,74.33
2023-08-29T23:05:17.574Z,73.33
2023-08-29T23:07:45.266Z,72.70
2023-08-29T23:10:12.773Z,72.44
2023-08-29T23:12:40.171Z,70.88
2023-08-29T23:15:08.116Z,70.37
2023-08-29T23:17:35.538Z,70.11
2023-08-29T23:20:05.438Z,69.63
2023-08-29T23:22:33.092Z,69.25
2023-08-29T23:25:00.497Z,67.78
2023-08-29T23:27:27.884Z,67.14
2023-08-29T23:29:55.707Z,66.69
2023-08-29T23:32:24.690Z,66.90
2023-08-29T23:34:53.196Z,67.01
2023-08-29T23:37:21.221Z,67.75
2023-08-29T23:39:50.043Z,66.98
2023-08-29T23:42:17.476Z,67.77
2023-08-29T23:44:45.703Z,67.85
2023-08-29T23:47:13.276Z,68.98
2023-08-29T23:49:40.734Z,69.17
2023-08-29T23:52:08.744Z,68.34
2023-08-29T23:54:36.226Z,68.16
2023-08-29T23:57:03.812Z,67.98
2023-08-29T23:59:31.568Z,68.81
